sensor_id;sensor_type;location;lat;lon;timestamp;temperature;humidity
4564;DHT22;2294;51.818;8.484;2022-07-04T15:44:22;25.80;92.10
4564;DHT22;2294;51.818;8.484;2022-07-04T15:46:49;25.40;93.40
4564;DHT22;2294;51.818;8.484;2022-07-04T15:49:35;25.30;93.50
4564;DHT22;2294;51.818;8.484;2022-07-04T15:52:03;28.40;92.90
4564;DHT22;2294;51.818;8.484;2022-07-04T15:54:31;32.80;90.70
4564;DHT22;2294;51.818;8.484;2022-07-04T15:56:58;34.10;82.30
4564;DHT22;2294;51.818;8.484;2022-07-04T15:59:26;35.20;79.10
4564;DHT22;2294;51.818;8.484;2022-07-04T16:01:53;34.50;69.00
4564;DHT22;2294;51.818;8.484;2022-07-04T16:04:20;33.80;60.80
4564;DHT22;2294;51.818;8.484;2022-07-04T16:06:47;33.80;58.80
4564;DHT22;2294;51.818;8.484;2022-07-04T16:09:14;34.30;64.60
4564;DHT22;2294;51.818;8.484;2022-07-04T16:11:41;35.20;61.00
4564;DHT22;2294;51.818;8.484;2022-07-04T16:14:08;34.60;59.10
4564;DHT22;2294;51.818;8.484;2022-07-04T16:16:36;35.00;57.80
4564;DHT22;2294;51.818;8.484;2022-07-04T16:19:03;34.10;54.60
4564;DHT22;2294;51.818;8.484;2022-07-04T16:21:30;34.20;54.50
4564;DHT22;2294;51.818;8.484;2022-07-04T16:25:20;34.40;54.80
4564;DHT22;2294;51.818;8.484;2022-07-04T16:27:47;34.20;54.00
4564;DHT22;2294;51.818;8.484;2022-07-04T16:30:15;32.20;54.60
4564;DHT22;2294;51.818;8.484;2022-07-04T16:32:41;27.50;62.00
4564;DHT22;2294;51.818;8.484;2022-07-04T16:35:09;26.50;69.10
4564;DHT22;2294;51.818;8.484;2022-07-04T16:37:36;29.90;69.80
4564;DHT22;2294;51.818;8.484;2022-07-04T16:40:04;32.10;63.90
4564;DHT22;2294;51.818;8.484;2022-07-04T16:42:33;32.40;61.80
4564;DHT22;2294;51.818;8.484;2022-07-04T16:44:59;33.30;60.20
4564;DHT22;2294;51.818;8.484;2022-07-04T16:47:27;31.10;57.10
4564;DHT22;2294;51.818;8.484;2022-07-04T16:49:54;30.10;59.10
4564;DHT22;2294;51.818;8.484;2022-07-04T16:52:21;30.30;62.40
4564;DHT22;2294;51.818;8.484;2022-07-04T16:54:49;27.70;64.10
4564;DHT22;2294;51.818;8.484;2022-07-04T16:57:16;27.30;69.40
4564;DHT22;2294;51.818;8.484;2022-07-04T16:59:44;27.30;75.50
4564;DHT22;2294;51.818;8.484;2022-07-04T17:02:11;25.80;75.90
4564;DHT22;2294;51.818;8.484;2022-07-04T17:04:38;26.40;78.40
4564;DHT22;2294;51.818;8.484;2022-07-04T17:07:05;26.20;77.40
4564;DHT22;2294;51.818;8.484;2022-07-04T17:09:32;26.00;79.10
4564;DHT22;2294;51.818;8.484;2022-07-04T17:11:59;28.90;76.40
4564;DHT22;2294;51.818;8.484;2022-07-04T17:14:26;30.80;73.90
4564;DHT22;2294;51.818;8.484;2022-07-04T17:16:54;30.00;68.70
4564;DHT22;2294;51.818;8.484;2022-07-04T17:19:21;27.00;74.50
4564;DHT22;2294;51.818;8.484;2022-07-04T17:21:48;27.00;77.30
4564;DHT22;2294;51.818;8.484;2022-07-04T17:24:15;29.80;75.40
4564;DHT22;2294;51.818;8.484;2022-07-04T17:26:42;30.00;70.10
4564;DHT22;2294;51.818;8.484;2022-07-04T17:29:09;30.90;70.10
4564;DHT22;2294;51.818;8.484;2022-07-04T17:31:36;31.00;63.20
4564;DHT22;2294;51.818;8.484;2022-07-04T17:34:04;31.40;64.90
4564;DHT22;2294;51.818;8.484;2022-07-04T17:36:31;30.40;68.30
4564;DHT22;2294;51.818;8.484;2022-07-04T17:38:58;28.10;70.50
4564;DHT22;2294;51.818;8.484;2022-07-04T17:41:25;26.70;75.30
4564;DHT22;2294;51.818;8.484;2022-07-04T17:44:09;26.30;76.00
4564;DHT22;2294;51.818;8.484;2022-07-04T17:46:36;25.40;79.50
4564;DHT22;2294;51.818;8.484;2022-07-04T17:49:07;24.70;80.30
4564;DHT22;2294;51.818;8.484;2022-07-04T17:51:35;25.10;79.90
4564;DHT22;2294;51.818;8.484;2022-07-04T17:54:03;25.10;81.10
4564;DHT22;2294;51.818;8.484;2022-07-04T17:56:30;24.70;84.10
4564;DHT22;2294;51.818;8.484;2022-07-04T17:58:57;24.10;87.50
4564;DHT22;2294;51.818;8.484;2022-07-04T18:01:24;24.00;90.60
4564;DHT22;2294;51.818;8.484;2022-07-04T18:03:51;24.50;91.10
4564;DHT22;2294;51.818;8.484;2022-07-04T18:06:19;25.00;93.10
4564;DHT22;2294;51.818;8.484;2022-07-04T18:08:47;25.10;93.30
4564;DHT22;2294;51.818;8.484;2022-07-04T18:11:14;25.40;92.90
4564;DHT22;2294;51.818;8.484;2022-07-04T18:13:41;25.40;96.70
4564;DHT22;2294;51.818;8.484;2022-07-04T18:16:08;25.00;94.50
4564;DHT22;2294;51.818;8.484;2022-07-04T18:18:35;24.90;94.30
4564;DHT22;2294;51.818;8.484;2022-07-04T18:21:03;24.10;94.60
4564;DHT22;2294;51.818;8.484;2022-07-04T18:23:32;24.50;95.10
4564;DHT22;2294;51.818;8.484;2022-07-04T18:25:59;24.10;96.10
4564;DHT22;2294;51.818;8.484;2022-07-04T18:28:26;24.20;96.70
4564;DHT22;2294;51.818;8.484;2022-07-04T18:30:53;23.90;97.40
4564;DHT22;2294;51.818;8.484;2022-07-04T18:33:27;23.70;98.70
4564;DHT22;2294;51.818;8.484;2022-07-04T18:35:54;24.10;98.70
4564;DHT22;2294;51.818;8.484;2022-07-04T18:38:21;24.00;98.40
4564;DHT22;2294;51.818;8.484;2022-07-04T18:40:49;24.30;98.50
4564;DHT22;2294;51.818;8.484;2022-07-04T18:43:33;24.00;99.50
4564;DHT22;2294;51.818;8.484;2022-07-04T18:46:02;23.50;99.90
4564;DHT22;2294;51.818;8.484;2022-07-04T18:48:32;23.70;99.90
4564;DHT22;2294;51.818;8.484;2022-07-04T18:50:59;24.10;99.90
4564;DHT22;2294;51.818;8.484;2022-07-04T18:53:26;23.30;99.90
4564;DHT22;2294;51.818;8.484;2022-07-04T18:55:54;23.10;99.90
4564;DHT22;2294;51.818;8.484;2022-07-04T18:58:22;23.10;99.90
4564;DHT22;2294;51.818;8.484;2022-07-04T19:00:49;23.10;99.90
4564;DHT22;2294;51.818;8.484;2022-07-04T19:03:15;23.00;99.90
4564;DHT22;2294;51.818;8.484;2022-07-04T19:05:43;22.90;99.90
4564;DHT22;2294;51.818;8.484;2022-07-04T19:08:11;22.60;99.90
4564;DHT22;2294;51.818;8.484;2022-07-04T19:10:38;22.80;99.90
4564;DHT22;2294;51.818;8.484;2022-07-04T19:13:07;22.90;99.90
4564;DHT22;2294;51.818;8.484;2022-07-04T19:15:34;22.60;99.90
4564;DHT22;2294;51.818;8.484;2022-07-04T19:18:03;22.50;99.90
4564;DHT22;2294;51.818;8.484;2022-07-04T19:20:30;22.40;99.90
4564;DHT22;2294;51.818;8.484;2022-07-04T19:22:57;22.40;99.90
4564;DHT22;2294;51.818;8.484;2022-07-04T19:25:25;22.30;99.90
4564;DHT22;2294;51.818;8.484;2022-07-04T19:27:52;22.30;99.90
4564;DHT22;2294;51.818;8.484;2022-07-04T19:30:20;22.00;99.90
4564;DHT22;2294;51.818;8.484;2022-07-04T19:32:47;21.90;99.90
4564;DHT22;2294;51.818;8.484;2022-07-04T19:35:14;21.70;99.90
4564;DHT22;2294;51.818;8.484;2022-07-04T19:37:41;21.80;99.90
4564;DHT22;2294;51.818;8.484;2022-07-04T19:40:09;21.70;99.90
4564;DHT22;2294;51.818;8.484;2022-07-04T19:42:37;21.60;99.90
4564;DHT22;2294;51.818;8.484;2022-07-04T19:45:05;21.40;99.90
4564;DHT22;2294;51.818;8.484;2022-07-04T19:47:34;21.50;99.90
4564;DHT22;2294;51.818;8.484;2022-07-04T19:50:01;21.30;99.90
4564;DHT22;2294;51.818;8.484;2022-07-04T19:52:29;21.30;99.90
4564;DHT22;2294;51.818;8.484;2022-07-04T19:54:58;21.10;99.90
4564;DHT22;2294;51.818;8.484;2022-07-04T19:57:26;21.10;99.90
4564;DHT22;2294;51.818;8.484;2022-07-04T19:59:53;21.10;99.90
4564;DHT22;2294;51.818;8.484;2022-07-04T20:02:21;21.10;99.90
4564;DHT22;2294;51.818;8.484;2022-07-04T20:04:49;21.10;99.90
4564;DHT22;2294;51.818;8.484;2022-07-04T20:07:16;20.90;99.90
4564;DHT22;2294;51.818;8.484;2022-07-04T20:09:44;21.00;99.90
4564;DHT22;2294;51.818;8.484;2022-07-04T20:12:11;20.90;99.90
4564;DHT22;2294;51.818;8.484;2022-07-04T20:14:38;20.80;99.90
4564;DHT22;2294;51.818;8.484;2022-07-04T20:17:18;20.80;99.90
4564;DHT22;2294;51.818;8.484;2022-07-04T20:19:45;20.50;99.90
4564;DHT22;2294;51.818;8.484;2022-07-04T20:22:14;20.40;99.90
4564;DHT22;2294;51.818;8.484;2022-07-04T20:24:42;20.30;99.90
4564;DHT22;2294;51.818;8.484;2022-07-04T20:27:10;20.30;99.90
4564;DHT22;2294;51.818;8.484;2022-07-04T20:29:37;20.30;99.90
4564;DHT22;2294;51.818;8.484;2022-07-04T20:32:05;20.20;99.90
4564;DHT22;2294;51.818;8.484;2022-07-04T20:34:32;20.20;99.90
4564;DHT22;2294;51.818;8.484;2022-07-04T20:36:59;20.10;99.90
4564;DHT22;2294;51.818;8.484;2022-07-04T20:39:28;19.80;99.90
4564;DHT22;2294;51.818;8.484;2022-07-04T20:41:56;19.80;99.90
4564;DHT22;2294;51.818;8.484;2022-07-04T20:44:22;19.70;99.90
4564;DHT22;2294;51.818;8.484;2022-07-04T20:46:49;19.60;99.90
4564;DHT22;2294;51.818;8.484;2022-07-04T20:49:22;19.50;99.90
4564;DHT22;2294;51.818;8.484;2022-07-04T20:51:49;19.40;99.90
4564;DHT22;2294;51.818;8.484;2022-07-04T20:54:16;19.50;99.90
4564;DHT22;2294;51.818;8.484;2022-07-04T20:56:45;19.50;99.90
4564;DHT22;2294;51.818;8.484;2022-07-04T20:59:12;19.60;99.90
4564;DHT22;2294;51.818;8.484;2022-07-04T21:01:40;19.70;99.90
4564;DHT22;2294;51.818;8.484;2022-07-04T21:04:07;19.70;99.90
4564;DHT22;2294;51.818;8.484;2022-07-04T21:06:34;19.70;99.90
4564;DHT22;2294;51.818;8.484;2022-07-04T21:09:01;19.70;99.90
4564;DHT22;2294;51.818;8.484;2022-07-04T21:11:28;19.60;99.90
4564;DHT22;2294;51.818;8.484;2022-07-04T21:13:56;19.50;99.90
4564;DHT22;2294;51.818;8.484;2022-07-04T21:16:23;19.50;99.90
4564;DHT22;2294;51.818;8.484;2022-07-04T21:18:50;19.40;99.90
4564;DHT22;2294;51.818;8.484;2022-07-04T21:21:16;19.30;99.90
4564;DHT22;2294;51.818;8.484;2022-07-04T21:23:43;19.30;99.90
4564;DHT22;2294;51.818;8.484;2022-07-04T21:26:10;19.20;99.90
4564;DHT22;2294;51.818;8.484;2022-07-04T21:28:37;19.30;99.90
4564;DHT22;2294;51.818;8.484;2022-07-04T21:31:06;19.20;99.90
4564;DHT22;2294;51.818;8.484;2022-07-04T21:33:33;19.10;99.90
4564;DHT22;2294;51.818;8.484;2022-07-04T21:36:01;19.00;99.90
4564;DHT22;2294;51.818;8.484;2022-07-04T21:38:28;18.80;99.90
4564;DHT22;2294;51.818;8.484;2022-07-04T21:40:55;18.70;99.90
4564;DHT22;2294;51.818;8.484;2022-07-04T21:43:24;18.80;99.90
4564;DHT22;2294;51.818;8.484;2022-07-04T21:45:51;18.80;99.90
4564;DHT22;2294;51.818;8.484;2022-07-04T21:48:20;18.80;99.90
4564;DHT22;2294;51.818;8.484;2022-07-04T21:50:47;18.70;99.90
4564;DHT22;2294;51.818;8.484;2022-07-04T21:53:14;18.70;99.90
4564;DHT22;2294;51.818;8.484;2022-07-04T21:55:41;18.60;99.90
4564;DHT22;2294;51.818;8.484;2022-07-04T21:58:08;18.50;99.90
4564;DHT22;2294;51.818;8.484;2022-07-04T22:00:36;18.60;99.90
4564;DHT22;2294;51.818;8.484;2022-07-04T22:05:34;18.50;99.90
4564;DHT22;2294;51.818;8.484;2022-07-04T22:08:02;18.40;99.90
4564;DHT22;2294;51.818;8.484;2022-07-04T22:10:29;18.40;99.90
4564;DHT22;2294;51.818;8.484;2022-07-04T22:12:56;18.40;99.90
4564;DHT22;2294;51.818;8.484;2022-07-04T22:15:24;18.40;99.90
4564;DHT22;2294;51.818;8.484;2022-07-04T22:17:51;18.50;99.90
4564;DHT22;2294;51.818;8.484;2022-07-04T22:20:18;18.50;99.90
4564;DHT22;2294;51.818;8.484;2022-07-04T22:22:46;18.20;99.90
4564;DHT22;2294;51.818;8.484;2022-07-04T22:25:14;18.10;99.90
4564;DHT22;2294;51.818;8.484;2022-07-04T22:27:41;18.10;99.90
4564;DHT22;2294;51.818;8.484;2022-07-04T22:30:08;18.00;99.90
4564;DHT22;2294;51.818;8.484;2022-07-04T22:32:36;17.90;99.90
4564;DHT22;2294;51.818;8.484;2022-07-04T22:35:04;17.80;99.90
4564;DHT22;2294;51.818;8.484;2022-07-04T22:37:31;17.70;99.90
4564;DHT22;2294;51.818;8.484;2022-07-04T22:39:59;17.60;99.90
4564;DHT22;2294;51.818;8.484;2022-07-04T22:42:26;17.60;99.90
4564;DHT22;2294;51.818;8.484;2022-07-04T22:44:53;17.60;99.90
4564;DHT22;2294;51.818;8.484;2022-07-04T22:47:20;17.50;99.90
4564;DHT22;2294;51.818;8.484;2022-07-04T22:49:47;17.60;99.90
4564;DHT22;2294;51.818;8.484;2022-07-04T22:52:14;17.50;99.90
4564;DHT22;2294;51.818;8.484;2022-07-04T22:54:41;17.60;99.90
4564;DHT22;2294;51.818;8.484;2022-07-04T22:57:23;17.50;99.90
4564;DHT22;2294;51.818;8.484;2022-07-04T22:59:53;17.30;99.90
4564;DHT22;2294;51.818;8.484;2022-07-04T23:02:20;17.20;99.90
4564;DHT22;2294;51.818;8.484;2022-07-04T23:04:48;17.10;99.90
4564;DHT22;2294;51.818;8.484;2022-07-04T23:07:16;17.10;99.90
4564;DHT22;2294;51.818;8.484;2022-07-04T23:09:43;17.10;99.90
4564;DHT22;2294;51.818;8.484;2022-07-04T23:12:10;16.90;99.90
4564;DHT22;2294;51.818;8.484;2022-07-04T23:14:39;16.80;99.90
4564;DHT22;2294;51.818;8.484;2022-07-04T23:17:06;16.80;99.90
4564;DHT22;2294;51.818;8.484;2022-07-04T23:19:33;16.70;99.90
4564;DHT22;2294;51.818;8.484;2022-07-04T23:22:02;16.70;99.90
4564;DHT22;2294;51.818;8.484;2022-07-04T23:24:29;16.60;99.90
4564;DHT22;2294;51.818;8.484;2022-07-04T23:26:56;16.60;99.90
4564;DHT22;2294;51.818;8.484;2022-07-04T23:29:24;16.50;99.90
4564;DHT22;2294;51.818;8.484;2022-07-04T23:31:52;16.50;99.90
4564;DHT22;2294;51.818;8.484;2022-07-04T23:34:19;16.40;99.90
4564;DHT22;2294;51.818;8.484;2022-07-04T23:36:46;16.40;99.90
4564;DHT22;2294;51.818;8.484;2022-07-04T23:39:13;16.30;99.90
4564;DHT22;2294;51.818;8.484;2022-07-04T23:41:40;16.20;99.90
4564;DHT22;2294;51.818;8.484;2022-07-04T23:44:08;16.20;99.90
4564;DHT22;2294;51.818;8.484;2022-07-04T23:46:34;16.10;99.90
4564;DHT22;2294;51.818;8.484;2022-07-04T23:49:03;16.00;99.90
4564;DHT22;2294;51.818;8.484;2022-07-04T23:51:30;16.00;99.90
4564;DHT22;2294;51.818;8.484;2022-07-04T23:53:57;16.00;99.90
4564;DHT22;2294;51.818;8.484;2022-07-04T23:56:24;16.00;99.90
4564;DHT22;2294;51.818;8.484;2022-07-04T23:58:51;16.00;99.90
